Time,TemperatureF,DewpointF,PressureIn,WindDirection,WindDirectionDegrees,WindSpeedMPH,WindSpeedGustMPH,Humidity,HourlyPrecipIn,Conditions,Clouds,dailyrainin,SoftwareType,DateUTC
2013-06-05 00:09:00,57.1,42.0,30.10,NW,318,1.0,-999.0,57,-99.99,,,0.00,weatherlink.com 1.10,2013-06-05 04:09:00,
2013-06-05 00:24:00,57.2,42.0,30.10,North,4,0.0,-999.0,57,-99.99,,,0.00,weatherlink.com 1.10,2013-06-05 04:24:00,
2013-06-05 00:39:00,57.1,42.0,30.11,NNW,348,0.0,-999.0,57,-99.99,,,0.00,weatherlink.com 1.10,2013-06-05 04:39:00,
2013-06-05 00:54:00,56.6,42.0,30.12,North,4,0.0,-999.0,58,-99.99,,,0.00,weatherlink.com 1.10,2013-06-05 04:54:00,
2013-06-05 01:09:00,56.0,42.0,30.12,NE,38,0.0,-999.0,59,-99.99,,,0.00,weatherlink.com 1.10,2013-06-05 05:09:00,
2013-06-05 01:24:00,56.0,42.0,30.11,NNE,31,4.0,-999.0,59,-99.99,,,0.00,weatherlink.com 1.10,2013-06-05 05:24:00,
2013-06-05 01:39:00,55.9,42.0,30.11,NNE,20,0.0,-999.0,59,-99.99,,,0.00,weatherlink.com 1.10,2013-06-05 05:39:00,
2013-06-05 01:54:00,55.3,41.0,30.11,NNE,19,0.0,-999.0,60,-99.99,,,0.00,weatherlink.com 1.10,2013-06-05 05:54:00,
2013-06-05 02:09:00,55.2,41.0,30.11,NNE,29,0.0,-999.0,60,-99.99,,,0.00,weatherlink.com 1.10,2013-06-05 06:09:00,
2013-06-05 02:24:00,55.0,42.0,30.11,NNE,32,1.0,-999.0,61,-99.99,,,0.00,weatherlink.com 1.10,2013-06-05 06:24:00,
2013-06-05 02:39:00,54.1,42.0,30.12,NE,41,1.0,-999.0,64,-99.99,,,0.00,weatherlink.com 1.10,2013-06-05 06:39:00,
2013-06-05 02:54:00,53.8,41.0,30.11,NE,40,0.0,-999.0,63,-99.99,,,0.00,weatherlink.com 1.10,2013-06-05 06:54:00,
2013-06-05 03:09:00,53.9,41.0,30.12,North,9,2.0,-999.0,63,-99.99,,,0.00,weatherlink.com 1.10,2013-06-05 07:09:00,
2013-06-05 03:24:00,53.6,42.0,30.12,NE,41,0.0,-999.0,64,-99.99,,,0.00,weatherlink.com 1.10,2013-06-05 07:24:00,
2013-06-05 03:39:00,53.2,42.0,30.12,NE,41,0.0,-999.0,65,-99.99,,,0.00,weatherlink.com 1.10,2013-06-05 07:39:00,
2013-06-05 03:54:00,52.2,42.0,30.13,NE,41,0.0,-999.0,68,-99.99,,,0.00,weatherlink.com 1.10,2013-06-05 07:54:00,
2013-06-05 04:09:00,52.1,41.0,30.13,NE,40,0.0,-999.0,67,-99.99,,,0.00,weatherlink.com 1.10,2013-06-05 08:09:00,
2013-06-05 04:24:00,52.1,41.0,30.13,NE,40,0.0,-999.0,67,-99.99,,,0.00,weatherlink.com 1.10,2013-06-05 08:24:00,
2013-06-05 04:39:00,51.9,42.0,30.13,NE,40,0.0,-999.0,68,-99.99,,,0.00,weatherlink.com 1.10,2013-06-05 08:39:00,
2013-06-05 04:54:00,51.6,42.0,30.13,NE,41,0.0,-999.0,69,-99.99,,,0.00,weatherlink.com 1.10,2013-06-05 08:54:00,
2013-06-05 05:09:00,51.1,42.0,30.14,NE,41,0.0,-999.0,71,-99.99,,,0.00,weatherlink.com 1.10,2013-06-05 09:09:00,
2013-06-05 05:24:00,50.6,41.0,30.14,NE,41,0.0,-999.0,71,-99.99,,,0.00,weatherlink.com 1.10,2013-06-05 09:24:00,
2013-06-05 05:39:00,50.2,42.0,30.15,NE,40,0.0,-999.0,73,-99.99,,,0.00,weatherlink.com 1.10,2013-06-05 09:39:00,
2013-06-05 05:54:00,49.8,42.0,30.16,NE,41,0.0,-999.0,75,-99.99,,,0.00,weatherlink.com 1.10,2013-06-05 09:54:00,
2013-06-05 06:09:00,49.8,42.0,30.15,NE,41,0.0,-999.0,75,-99.99,,,0.00,weatherlink.com 1.10,2013-06-05 10:09:00,
2013-06-05 06:24:00,49.9,43.0,30.16,NE,41,0.0,-999.0,76,-99.99,,,0.00,weatherlink.com 1.10,2013-06-05 10:24:00,
2013-06-05 06:39:00,50.6,43.0,30.16,NE,41,0.0,-999.0,74,-99.99,,,0.00,weatherlink.com 1.10,2013-06-05 10:39:00,
2013-06-05 06:54:00,51.2,43.0,30.16,NE,40,0.0,-999.0,74,-99.99,,,0.00,weatherlink.com 1.10,2013-06-05 10:54:00,
2013-06-05 07:09:00,51.4,44.0,30.17,NE,40,0.0,-999.0,75,-99.99,,,0.00,weatherlink.com 1.10,2013-06-05 11:09:00,
2013-06-05 07:24:00,52.1,44.0,30.18,NE,40,0.0,-999.0,75,-99.99,,,0.00,weatherlink.com 1.10,2013-06-05 11:24:00,
2013-06-05 07:39:00,53.9,45.0,30.19,NE,41,0.0,-999.0,72,-99.99,,,0.00,weatherlink.com 1.10,2013-06-05 11:39:00,
2013-06-05 07:54:00,55.4,46.0,30.20,NE,41,0.0,-999.0,70,-99.99,,,0.00,weatherlink.com 1.10,2013-06-05 11:54:00,
2013-06-05 08:09:00,56.7,46.0,30.20,NE,41,0.0,-999.0,67,-99.99,,,0.00,weatherlink.com 1.10,2013-06-05 12:09:00,
2013-06-05 08:24:00,57.4,46.0,30.20,NE,40,0.0,-999.0,66,-99.99,,,0.00,weatherlink.com 1.10,2013-06-05 12:24:00,
2013-06-05 08:39:00,58.6,47.0,30.21,NE,40,0.0,-999.0,66,-99.99,,,0.00,weatherlink.com 1.10,2013-06-05 12:39:00,
2013-06-05 08:54:00,59.0,46.0,30.20,NE,41,0.0,-999.0,63,-99.99,,,0.00,weatherlink.com 1.10,2013-06-05 12:54:00,
2013-06-05 09:09:00,60.5,48.0,30.21,NE,46,0.0,-999.0,63,-99.99,,,0.00,weatherlink.com 1.10,2013-06-05 13:09:00,
2013-06-05 09:24:00,61.6,47.0,30.20,NE,48,0.0,-999.0,60,-99.99,,,0.00,weatherlink.com 1.10,2013-06-05 13:24:00,
2013-06-05 09:39:00,62.9,49.0,30.20,NE,45,0.0,-999.0,61,-99.99,,,0.00,weatherlink.com 1.10,2013-06-05 13:39:00,
2013-06-05 09:54:00,64.8,48.0,30.20,NE,45,0.0,-999.0,55,-99.99,,,0.00,weatherlink.com 1.10,2013-06-05 13:54:00,
2013-06-05 10:09:00,66.0,50.0,30.20,NE,46,0.0,-999.0,57,-99.99,,,0.00,weatherlink.com 1.10,2013-06-05 14:09:00,
2013-06-05 10:24:00,66.5,49.0,30.20,NE,46,0.0,-999.0,53,-99.99,,,0.00,weatherlink.com 1.10,2013-06-05 14:24:00,
2013-06-05 10:39:00,66.7,49.0,30.20,NE,46,0.0,-999.0,54,-99.99,,,0.00,weatherlink.com 1.10,2013-06-05 14:39:00,
2013-06-05 10:54:00,67.9,50.0,30.20,NE,49,0.0,-999.0,53,-99.99,,,0.00,weatherlink.com 1.10,2013-06-05 14:54:00,
2013-06-05 11:09:00,67.1,47.0,30.20,NE,48,0.0,-999.0,48,-99.99,,,0.00,weatherlink.com 1.10,2013-06-05 15:09:00,
2013-06-05 11:24:00,67.9,45.0,30.19,NNW,328,0.0,-999.0,44,-99.99,,,0.00,weatherlink.com 1.10,2013-06-05 15:24:00,
2013-06-05 11:39:00,68.1,46.0,30.18,SW,217,1.0,-999.0,46,-99.99,,,0.00,weatherlink.com 1.10,2013-06-05 15:39:00,
2013-06-05 11:54:00,68.9,47.0,30.18,NNW,339,4.0,-999.0,46,-99.99,,,0.00,weatherlink.com 1.10,2013-06-05 15:54:00,
2013-06-05 12:09:00,68.8,51.0,30.18,North,349,0.0,-999.0,53,-99.99,,,0.00,weatherlink.com 1.10,2013-06-05 16:09:00,
2013-06-05 12:24:00,70.3,50.0,30.18,NW,320,0.0,-999.0,48,-99.99,,,0.00,weatherlink.com 1.10,2013-06-05 16:24:00,
2013-06-05 12:39:00,70.3,48.0,30.17,South,186,0.0,-999.0,46,-99.99,,,0.00,weatherlink.com 1.10,2013-06-05 16:39:00,
2013-06-05 12:54:00,71.0,50.0,30.16,NNE,24,0.0,-999.0,48,-99.99,,,0.00,weatherlink.com 1.10,2013-06-05 16:54:00,
2013-06-05 13:09:00,70.2,49.0,30.16,NW,306,0.0,-999.0,48,-99.99,,,0.00,weatherlink.com 1.10,2013-06-05 17:09:00,
2013-06-05 13:24:00,71.3,49.0,30.16,West,276,0.0,-999.0,46,-99.99,,,0.00,weatherlink.com 1.10,2013-06-05 17:24:00,
2013-06-05 13:39:00,70.9,47.0,30.16,East,87,0.0,-999.0,43,-99.99,,,0.00,weatherlink.com 1.10,2013-06-05 17:39:00,
2013-06-05 13:54:00,71.2,46.0,30.16,ESE,113,0.0,-999.0,40,-99.99,,,0.00,weatherlink.com 1.10,2013-06-05 17:54:00,
2013-06-05 14:09:00,72.3,47.0,30.15,WNW,301,0.0,-999.0,41,-99.99,,,0.00,weatherlink.com 1.10,2013-06-05 18:09:00,
2013-06-05 14:24:00,72.5,48.0,30.14,WSW,251,0.0,-999.0,42,-99.99,,,0.00,weatherlink.com 1.10,2013-06-05 18:24:00,
2013-06-05 14:39:00,73.3,46.0,30.14,WSW,245,0.0,-999.0,38,-99.99,,,0.00,weatherlink.com 1.10,2013-06-05 18:39:00,
2013-06-05 14:54:00,72.0,49.0,30.14,North,354,0.0,-999.0,44,-99.99,,,0.00,weatherlink.com 1.10,2013-06-05 18:54:00,
2013-06-05 15:09:00,73.0,49.0,30.13,NNW,332,0.0,-999.0,43,-99.99,,,0.00,weatherlink.com 1.10,2013-06-05 19:09:00,
2013-06-05 15:24:00,73.7,49.0,30.12,SW,225,0.0,-999.0,42,-99.99,,,0.00,weatherlink.com 1.10,2013-06-05 19:24:00,
2013-06-05 15:39:00,72.5,47.0,30.11,NNE,19,0.0,-999.0,40,-99.99,,,0.00,weatherlink.com 1.10,2013-06-05 19:39:00,
2013-06-05 15:54:00,73.3,49.0,30.11,WSW,253,0.0,-999.0,42,-99.99,,,0.00,weatherlink.com 1.10,2013-06-05 19:54:00,
2013-06-05 16:09:00,72.0,50.0,30.11,WSW,256,0.0,-999.0,46,-99.99,,,0.00,weatherlink.com 1.10,2013-06-05 20:09:00,
2013-06-05 16:24:00,71.1,51.0,30.11,WSW,254,0.0,-999.0,50,-99.99,,,0.00,weatherlink.com 1.10,2013-06-05 20:24:00,
2013-06-05 16:39:00,72.2,50.0,30.12,SW,228,0.0,-999.0,45,-99.99,,,0.00,weatherlink.com 1.10,2013-06-05 20:39:00,
2013-06-05 16:54:00,72.9,50.0,30.12,SW,221,0.0,-999.0,45,-99.99,,,0.00,weatherlink.com 1.10,2013-06-05 20:54:00,
2013-06-05 17:09:00,72.3,50.0,30.12,SSW,212,0.0,-999.0,46,-99.99,,,0.00,weatherlink.com 1.10,2013-06-05 21:09:00,
2013-06-05 17:24:00,71.9,50.0,30.12,SSW,199,0.0,-999.0,47,-99.99,,,0.00,weatherlink.com 1.10,2013-06-05 21:24:00,
2013-06-05 17:39:00,70.3,51.0,30.12,WSW,243,0.0,-999.0,50,-99.99,,,0.00,weatherlink.com 1.10,2013-06-05 21:39:00,
2013-06-05 17:54:00,69.1,50.0,30.11,SSW,208,0.0,-999.0,50,-99.99,,,0.00,weatherlink.com 1.10,2013-06-05 21:54:00,
2013-06-05 18:24:00,68.6,50.0,30.12,SSW,208,0.0,-999.0,52,-99.99,,,0.00,weatherlink.com 1.10,2013-06-05 22:24:00,
2013-06-05 18:54:00,67.3,49.0,30.13,SW,226,0.0,-999.0,53,-99.99,,,0.00,weatherlink.com 1.10,2013-06-05 22:54:00,
2013-06-05 19:09:00,66.5,49.0,30.13,SW,233,0.0,-999.0,54,-99.99,,,0.00,weatherlink.com 1.10,2013-06-05 23:09:00,
2013-06-05 19:24:00,65.4,48.0,30.12,WSW,250,0.0,-999.0,54,-99.99,,,0.00,weatherlink.com 1.10,2013-06-05 23:24:00,
2013-06-05 19:39:00,64.7,48.0,30.12,SW,226,0.0,-999.0,55,-99.99,,,0.00,weatherlink.com 1.10,2013-06-05 23:39:00,
2013-06-05 19:54:00,64.0,48.0,30.12,WSW,243,0.0,-999.0,56,-99.99,,,0.00,weatherlink.com 1.10,2013-06-05 23:54:00,
2013-06-05 20:09:00,63.1,48.0,30.13,WSW,243,0.0,-999.0,58,-99.99,,,0.00,weatherlink.com 1.10,2013-06-06 00:09:00,
2013-06-05 20:24:00,62.0,47.0,30.13,WSW,243,0.0,-999.0,59,-99.99,,,0.00,weatherlink.com 1.10,2013-06-06 00:24:00,
2013-06-05 20:39:00,61.2,47.0,30.13,WSW,243,0.0,-999.0,59,-99.99,,,0.00,weatherlink.com 1.10,2013-06-06 00:39:00,
2013-06-05 20:54:00,60.5,46.0,30.14,WSW,243,0.0,-999.0,59,-99.99,,,0.00,weatherlink.com 1.10,2013-06-06 00:54:00,
2013-06-05 21:09:00,59.7,46.0,30.14,WSW,243,0.0,-999.0,61,-99.99,,,0.00,weatherlink.com 1.10,2013-06-06 01:09:00,
2013-06-05 21:24:00,59.3,45.0,30.15,WSW,243,0.0,-999.0,60,-99.99,,,0.00,weatherlink.com 1.10,2013-06-06 01:24:00,
2013-06-05 21:39:00,59.0,45.0,30.15,SW,236,0.0,-999.0,61,-99.99,,,0.00,weatherlink.com 1.10,2013-06-06 01:39:00,
2013-06-05 21:54:00,59.0,46.0,30.15,SW,236,0.0,-999.0,62,-99.99,,,0.00,weatherlink.com 1.10,2013-06-06 01:54:00,
2013-06-05 22:09:00,58.2,46.0,30.16,SW,236,0.0,-999.0,64,-99.99,,,0.00,weatherlink.com 1.10,2013-06-06 02:09:00,
2013-06-05 22:24:00,57.5,47.0,30.15,SW,236,0.0,-999.0,67,-99.99,,,0.00,weatherlink.com 1.10,2013-06-06 02:24:00,
2013-06-05 22:39:00,56.6,46.0,30.16,SW,236,0.0,-999.0,68,-99.99,,,0.00,weatherlink.com 1.10,2013-06-06 02:39:00,
2013-06-05 22:54:00,55.9,46.0,30.15,SW,236,0.0,-999.0,69,-99.99,,,0.00,weatherlink.com 1.10,2013-06-06 02:54:00,
2013-06-05 23:09:00,55.3,46.0,30.15,SW,236,0.0,-999.0,70,-99.99,,,0.00,weatherlink.com 1.10,2013-06-06 03:09:00,
2013-06-05 23:24:00,54.8,45.0,30.16,SW,236,0.0,-999.0,70,-99.99,,,0.00,weatherlink.com 1.10,2013-06-06 03:24:00,
2013-06-05 23:39:00,54.7,46.0,30.15,SW,236,0.0,-999.0,73,-99.99,,,0.00,weatherlink.com 1.10,2013-06-06 03:39:00,
2013-06-05 23:54:00,54.7,46.0,30.15,SW,236,0.0,-999.0,72,-99.99,,,0.00,weatherlink.com 1.10,2013-06-06 03:54:00,